sensor_id;sensor_type;location;lat;lon;timestamp;P1;durP1;ratioP1;P2;durP2;ratioP2
63379;SDS011;53160;55.014;73.156;2022-09-25T00:01:16;80.80;;;71.00;;
63379;SDS011;53160;55.014;73.156;2022-09-25T00:03:42;73.00;;;57.80;;
63379;SDS011;53160;55.014;73.156;2022-09-25T00:06:19;78.00;;;67.60;;
63379;SDS011;53160;55.014;73.156;2022-09-25T00:08:48;74.40;;;62.60;;
63379;SDS011;53160;55.014;73.156;2022-09-25T00:11:20;77.20;;;68.20;;
63379;SDS011;53160;55.014;73.156;2022-09-25T00:13:50;71.40;;;57.40;;
63379;SDS011;53160;55.014;73.156;2022-09-25T00:16:18;64.00;;;51.00;;
63379;SDS011;53160;55.014;73.156;2022-09-25T00:18:47;66.40;;;52.60;;
63379;SDS011;53160;55.014;73.156;2022-09-25T00:21:31;64.60;;;50.40;;
63379;SDS011;53160;55.014;73.156;2022-09-25T00:24:04;67.20;;;53.40;;
63379;SDS011;53160;55.014;73.156;2022-09-25T00:26:31;71.60;;;57.20;;
63379;SDS011;53160;55.014;73.156;2022-09-25T00:29:04;73.00;;;58.60;;
63379;SDS011;53160;55.014;73.156;2022-09-25T00:31:41;61.60;;;48.20;;
63379;SDS011;53160;55.014;73.156;2022-09-25T00:34:11;58.80;;;46.20;;
63379;SDS011;53160;55.014;73.156;2022-09-25T00:36:42;70.40;;;55.00;;
63379;SDS011;53160;55.014;73.156;2022-09-25T00:39:10;71.80;;;57.40;;
63379;SDS011;53160;55.014;73.156;2022-09-25T00:41:36;60.00;;;47.80;;
63379;SDS011;53160;55.014;73.156;2022-09-25T00:44:02;62.20;;;50.60;;
63379;SDS011;53160;55.014;73.156;2022-09-25T00:46:39;67.80;;;52.60;;
63379;SDS011;53160;55.014;73.156;2022-09-25T00:49:13;62.40;;;49.40;;
63379;SDS011;53160;55.014;73.156;2022-09-25T00:54:12;66.80;;;50.80;;
63379;SDS011;53160;55.014;73.156;2022-09-25T00:56:41;61.20;;;48.80;;
63379;SDS011;53160;55.014;73.156;2022-09-25T00:59:20;59.40;;;47.60;;
63379;SDS011;53160;55.014;73.156;2022-09-25T01:01:48;61.60;;;50.00;;
63379;SDS011;53160;55.014;73.156;2022-09-25T01:04:25;61.80;;;49.80;;
63379;SDS011;53160;55.014;73.156;2022-09-25T01:06:54;57.60;;;46.80;;
63379;SDS011;53160;55.014;73.156;2022-09-25T01:09:24;56.40;;;45.80;;
63379;SDS011;53160;55.014;73.156;2022-09-25T01:11:50;53.20;;;42.00;;
63379;SDS011;53160;55.014;73.156;2022-09-25T01:14:17;58.00;;;46.60;;
63379;SDS011;53160;55.014;73.156;2022-09-25T01:21:50;52.80;;;43.00;;
63379;SDS011;53160;55.014;73.156;2022-09-25T01:24:22;57.00;;;46.40;;
63379;SDS011;53160;55.014;73.156;2022-09-25T01:27:15;53.80;;;44.00;;
63379;SDS011;53160;55.014;73.156;2022-09-25T01:32:20;51.00;;;40.80;;
63379;SDS011;53160;55.014;73.156;2022-09-25T01:37:25;52.60;;;41.00;;
63379;SDS011;53160;55.014;73.156;2022-09-25T01:42:41;52.80;;;43.80;;
63379;SDS011;53160;55.014;73.156;2022-09-25T01:45:08;55.00;;;45.40;;
63379;SDS011;53160;55.014;73.156;2022-09-25T01:47:37;57.20;;;45.80;;
63379;SDS011;53160;55.014;73.156;2022-09-25T01:50:06;56.40;;;43.80;;
63379;SDS011;53160;55.014;73.156;2022-09-25T01:52:38;57.60;;;46.40;;
63379;SDS011;53160;55.014;73.156;2022-09-25T01:55:07;59.40;;;48.00;;
63379;SDS011;53160;55.014;73.156;2022-09-25T01:57:37;61.00;;;49.00;;
63379;SDS011;53160;55.014;73.156;2022-09-25T02:00:07;56.20;;;45.20;;
63379;SDS011;53160;55.014;73.156;2022-09-25T02:02:44;50.80;;;40.20;;
63379;SDS011;53160;55.014;73.156;2022-09-25T02:05:28;50.20;;;40.20;;
63379;SDS011;53160;55.014;73.156;2022-09-25T02:08:02;49.20;;;40.40;;
63379;SDS011;53160;55.014;73.156;2022-09-25T02:10:34;49.80;;;38.40;;
63379;SDS011;53160;55.014;73.156;2022-09-25T02:13:06;53.00;;;42.60;;
63379;SDS011;53160;55.014;73.156;2022-09-25T02:15:35;54.20;;;43.20;;
63379;SDS011;53160;55.014;73.156;2022-09-25T02:18:13;49.80;;;41.40;;
63379;SDS011;53160;55.014;73.156;2022-09-25T02:21:00;49.60;;;40.80;;
63379;SDS011;53160;55.014;73.156;2022-09-25T02:23:48;42.60;;;36.00;;
63379;SDS011;53160;55.014;73.156;2022-09-25T02:26:29;49.00;;;41.40;;
63379;SDS011;53160;55.014;73.156;2022-09-25T02:29:00;49.40;;;40.20;;
63379;SDS011;53160;55.014;73.156;2022-09-25T02:34:15;38.40;;;33.20;;
63379;SDS011;53160;55.014;73.156;2022-09-25T02:36:41;51.00;;;41.60;;
63379;SDS011;53160;55.014;73.156;2022-09-25T02:39:09;48.20;;;38.40;;
63379;SDS011;53160;55.014;73.156;2022-09-25T02:49:18;46.00;;;38.40;;
63379;SDS011;53160;55.014;73.156;2022-09-25T02:54:30;42.80;;;36.00;;
63379;SDS011;53160;55.014;73.156;2022-09-25T02:57:02;37.40;;;34.20;;
63379;SDS011;53160;55.014;73.156;2022-09-25T02:59:37;30.60;;;29.20;;
63379;SDS011;53160;55.014;73.156;2022-09-25T03:02:07;39.40;;;33.60;;
63379;SDS011;53160;55.014;73.156;2022-09-25T03:04:36;41.20;;;35.40;;
63379;SDS011;53160;55.014;73.156;2022-09-25T03:07:04;34.80;;;32.40;;
63379;SDS011;53160;55.014;73.156;2022-09-25T03:09:32;38.00;;;33.00;;
63379;SDS011;53160;55.014;73.156;2022-09-25T03:12:00;38.20;;;33.40;;
63379;SDS011;53160;55.014;73.156;2022-09-25T03:14:29;39.60;;;35.00;;
63379;SDS011;53160;55.014;73.156;2022-09-25T03:16:56;40.20;;;35.00;;
63379;SDS011;53160;55.014;73.156;2022-09-25T03:19:25;37.00;;;32.60;;
63379;SDS011;53160;55.014;73.156;2022-09-25T03:21:52;40.60;;;32.80;;
63379;SDS011;53160;55.014;73.156;2022-09-25T03:24:19;38.60;;;33.60;;
63379;SDS011;53160;55.014;73.156;2022-09-25T03:26:45;37.40;;;32.20;;
63379;SDS011;53160;55.014;73.156;2022-09-25T03:29:12;32.00;;;30.80;;
63379;SDS011;53160;55.014;73.156;2022-09-25T03:31:47;37.40;;;32.40;;
63379;SDS011;53160;55.014;73.156;2022-09-25T03:34:14;44.00;;;35.00;;
63379;SDS011;53160;55.014;73.156;2022-09-25T03:36:41;47.20;;;38.80;;
63379;SDS011;53160;55.014;73.156;2022-09-25T03:39:13;46.80;;;38.00;;
63379;SDS011;53160;55.014;73.156;2022-09-25T03:41:40;47.60;;;39.00;;
63379;SDS011;53160;55.014;73.156;2022-09-25T03:44:06;50.60;;;42.20;;
63379;SDS011;53160;55.014;73.156;2022-09-25T03:46:33;45.60;;;37.80;;
63379;SDS011;53160;55.014;73.156;2022-09-25T03:49:01;40.80;;;34.80;;
63379;SDS011;53160;55.014;73.156;2022-09-25T03:51:31;50.60;;;40.40;;
63379;SDS011;53160;55.014;73.156;2022-09-25T03:53:58;45.60;;;39.00;;
63379;SDS011;53160;55.014;73.156;2022-09-25T03:56:25;54.80;;;44.60;;
63379;SDS011;53160;55.014;73.156;2022-09-25T03:58:52;57.20;;;46.60;;
63379;SDS011;53160;55.014;73.156;2022-09-25T04:01:24;52.00;;;42.00;;
63379;SDS011;53160;55.014;73.156;2022-09-25T04:03:50;49.20;;;42.00;;
63379;SDS011;53160;55.014;73.156;2022-09-25T04:06:21;52.00;;;42.00;;
63379;SDS011;53160;55.014;73.156;2022-09-25T04:08:49;56.20;;;47.00;;
63379;SDS011;53160;55.014;73.156;2022-09-25T04:11:20;47.80;;;37.80;;
63379;SDS011;53160;55.014;73.156;2022-09-25T04:13:46;48.40;;;41.20;;
63379;SDS011;53160;55.014;73.156;2022-09-25T04:16:13;46.00;;;38.40;;
63379;SDS011;53160;55.014;73.156;2022-09-25T04:18:50;46.80;;;40.40;;
63379;SDS011;53160;55.014;73.156;2022-09-25T04:21:16;50.40;;;42.20;;
63379;SDS011;53160;55.014;73.156;2022-09-25T04:23:43;46.00;;;38.40;;
63379;SDS011;53160;55.014;73.156;2022-09-25T04:26:29;44.40;;;37.20;;
63379;SDS011;53160;55.014;73.156;2022-09-25T04:28:55;51.00;;;42.60;;
63379;SDS011;53160;55.014;73.156;2022-09-25T04:31:27;55.00;;;45.20;;
63379;SDS011;53160;55.014;73.156;2022-09-25T04:33:53;53.00;;;44.20;;
63379;SDS011;53160;55.014;73.156;2022-09-25T04:36:20;51.20;;;42.00;;
63379;SDS011;53160;55.014;73.156;2022-09-25T04:38:46;44.60;;;36.80;;
63379;SDS011;53160;55.014;73.156;2022-09-25T04:41:13;44.80;;;38.20;;
63379;SDS011;53160;55.014;73.156;2022-09-25T04:43:42;50.60;;;41.00;;
63379;SDS011;53160;55.014;73.156;2022-09-25T04:46:09;51.80;;;42.20;;
63379;SDS011;53160;55.014;73.156;2022-09-25T04:48:46;54.00;;;44.60;;
63379;SDS011;53160;55.014;73.156;2022-09-25T04:51:12;50.80;;;41.60;;
63379;SDS011;53160;55.014;73.156;2022-09-25T04:53:43;51.00;;;43.00;;
63379;SDS011;53160;55.014;73.156;2022-09-25T04:56:10;50.00;;;40.80;;
63379;SDS011;53160;55.014;73.156;2022-09-25T04:58:42;54.40;;;42.40;;
63379;SDS011;53160;55.014;73.156;2022-09-25T05:01:08;48.60;;;40.00;;
63379;SDS011;53160;55.014;73.156;2022-09-25T05:03:35;53.40;;;43.80;;
63379;SDS011;53160;55.014;73.156;2022-09-25T05:06:01;53.20;;;42.80;;
63379;SDS011;53160;55.014;73.156;2022-09-25T05:08:41;52.00;;;43.20;;
63379;SDS011;53160;55.014;73.156;2022-09-25T05:11:07;59.20;;;47.40;;
63379;SDS011;53160;55.014;73.156;2022-09-25T05:13:33;52.40;;;43.00;;
63379;SDS011;53160;55.014;73.156;2022-09-25T05:16:00;51.60;;;40.60;;
63379;SDS011;53160;55.014;73.156;2022-09-25T05:18:26;53.80;;;44.00;;
63379;SDS011;53160;55.014;73.156;2022-09-25T05:20:52;53.20;;;44.40;;
63379;SDS011;53160;55.014;73.156;2022-09-25T05:23:19;51.60;;;42.00;;
63379;SDS011;53160;55.014;73.156;2022-09-25T05:25:52;44.40;;;37.40;;
63379;SDS011;53160;55.014;73.156;2022-09-25T05:28:22;51.80;;;42.40;;
63379;SDS011;53160;55.014;73.156;2022-09-25T05:30:49;49.40;;;40.80;;
63379;SDS011;53160;55.014;73.156;2022-09-25T05:33:20;46.80;;;37.40;;
63379;SDS011;53160;55.014;73.156;2022-09-25T05:38:32;47.00;;;39.40;;
63379;SDS011;53160;55.014;73.156;2022-09-25T05:41:02;46.60;;;37.00;;
63379;SDS011;53160;55.014;73.156;2022-09-25T05:43:30;42.60;;;37.00;;
63379;SDS011;53160;55.014;73.156;2022-09-25T05:45:57;50.00;;;40.20;;
63379;SDS011;53160;55.014;73.156;2022-09-25T05:48:24;44.40;;;37.40;;
63379;SDS011;53160;55.014;73.156;2022-09-25T05:50:51;43.20;;;37.20;;
63379;SDS011;53160;55.014;73.156;2022-09-25T05:53:18;47.80;;;38.80;;
63379;SDS011;53160;55.014;73.156;2022-09-25T05:55:54;47.00;;;38.60;;
63379;SDS011;53160;55.014;73.156;2022-09-25T05:58:20;47.00;;;38.80;;
63379;SDS011;53160;55.014;73.156;2022-09-25T06:01:01;28.20;;;23.40;;
63379;SDS011;53160;55.014;73.156;2022-09-25T06:03:28;51.60;;;42.40;;
63379;SDS011;53160;55.014;73.156;2022-09-25T06:05:55;48.60;;;40.40;;
63379;SDS011;53160;55.014;73.156;2022-09-25T06:08:21;39.00;;;35.20;;
63379;SDS011;53160;55.014;73.156;2022-09-25T06:10:52;37.60;;;34.00;;
63379;SDS011;53160;55.014;73.156;2022-09-25T06:13:20;42.00;;;35.00;;
63379;SDS011;53160;55.014;73.156;2022-09-25T06:15:46;19.60;;;18.20;;
63379;SDS011;53160;55.014;73.156;2022-09-25T06:18:15;34.60;;;32.40;;
63379;SDS011;53160;55.014;73.156;2022-09-25T06:20:44;31.80;;;29.00;;
63379;SDS011;53160;55.014;73.156;2022-09-25T06:23:10;38.40;;;33.80;;
63379;SDS011;53160;55.014;73.156;2022-09-25T06:25:36;31.80;;;30.00;;
63379;SDS011;53160;55.014;73.156;2022-09-25T06:28:03;31.60;;;28.60;;
63379;SDS011;53160;55.014;73.156;2022-09-25T06:30:30;36.40;;;32.00;;
63379;SDS011;53160;55.014;73.156;2022-09-25T06:32:59;32.60;;;30.20;;
63379;SDS011;53160;55.014;73.156;2022-09-25T06:35:26;30.80;;;27.60;;
63379;SDS011;53160;55.014;73.156;2022-09-25T06:37:57;33.60;;;31.40;;
63379;SDS011;53160;55.014;73.156;2022-09-25T06:40:24;39.40;;;34.60;;
63379;SDS011;53160;55.014;73.156;2022-09-25T06:42:58;41.20;;;36.60;;
63379;SDS011;53160;55.014;73.156;2022-09-25T06:45:24;41.60;;;35.60;;
63379;SDS011;53160;55.014;73.156;2022-09-25T06:48:01;50.40;;;39.40;;
63379;SDS011;53160;55.014;73.156;2022-09-25T06:50:29;36.00;;;31.40;;
63379;SDS011;53160;55.014;73.156;2022-09-25T06:53:01;26.20;;;24.80;;
63379;SDS011;53160;55.014;73.156;2022-09-25T06:55:32;37.80;;;33.80;;
63379;SDS011;53160;55.014;73.156;2022-09-25T06:58:04;33.80;;;31.40;;
63379;SDS011;53160;55.014;73.156;2022-09-25T07:00:44;20.00;;;19.40;;
63379;SDS011;53160;55.014;73.156;2022-09-25T07:03:10;29.60;;;26.40;;
63379;SDS011;53160;55.014;73.156;2022-09-25T07:05:55;29.00;;;27.60;;
63379;SDS011;53160;55.014;73.156;2022-09-25T07:08:21;34.00;;;30.20;;
63379;SDS011;53160;55.014;73.156;2022-09-25T07:10:53;29.00;;;24.20;;
63379;SDS011;53160;55.014;73.156;2022-09-25T07:13:22;26.80;;;25.60;;
63379;SDS011;53160;55.014;73.156;2022-09-25T07:15:52;31.20;;;29.80;;
63379;SDS011;53160;55.014;73.156;2022-09-25T07:18:20;26.00;;;25.40;;
63379;SDS011;53160;55.014;73.156;2022-09-25T07:20:46;33.80;;;30.40;;
63379;SDS011;53160;55.014;73.156;2022-09-25T07:23:13;32.40;;;30.00;;
63379;SDS011;53160;55.014;73.156;2022-09-25T07:25:39;42.60;;;35.20;;
63379;SDS011;53160;55.014;73.156;2022-09-25T07:28:06;38.40;;;30.00;;
63379;SDS011;53160;55.014;73.156;2022-09-25T07:30:33;37.40;;;34.00;;
63379;SDS011;53160;55.014;73.156;2022-09-25T07:33:04;41.40;;;36.60;;
63379;SDS011;53160;55.014;73.156;2022-09-25T07:35:40;26.60;;;24.00;;
63379;SDS011;53160;55.014;73.156;2022-09-25T07:38:07;23.00;;;20.80;;
63379;SDS011;53160;55.014;73.156;2022-09-25T07:40:33;29.80;;;26.80;;
63379;SDS011;53160;55.014;73.156;2022-09-25T07:43:01;28.60;;;27.40;;
63379;SDS011;53160;55.014;73.156;2022-09-25T07:45:38;27.20;;;26.20;;
63379;SDS011;53160;55.014;73.156;2022-09-25T07:48:08;25.80;;;24.80;;
63379;SDS011;53160;55.014;73.156;2022-09-25T07:50:34;41.20;;;33.60;;
63379;SDS011;53160;55.014;73.156;2022-09-25T07:53:01;30.20;;;27.80;;
63379;SDS011;53160;55.014;73.156;2022-09-25T07:55:27;26.80;;;25.40;;
63379;SDS011;53160;55.014;73.156;2022-09-25T07:58:04;33.00;;;29.80;;
63379;SDS011;53160;55.014;73.156;2022-09-25T08:00:31;31.00;;;28.00;;
63379;SDS011;53160;55.014;73.156;2022-09-25T08:02:58;33.00;;;29.60;;
63379;SDS011;53160;55.014;73.156;2022-09-25T08:05:25;32.00;;;28.40;;
63379;SDS011;53160;55.014;73.156;2022-09-25T08:07:56;31.00;;;26.80;;
63379;SDS011;53160;55.014;73.156;2022-09-25T08:10:23;25.80;;;24.80;;
63379;SDS011;53160;55.014;73.156;2022-09-25T08:12:49;31.60;;;29.80;;
63379;SDS011;53160;55.014;73.156;2022-09-25T08:15:26;31.40;;;30.00;;
63379;SDS011;53160;55.014;73.156;2022-09-25T08:17:52;29.40;;;27.80;;
63379;SDS011;53160;55.014;73.156;2022-09-25T08:20:24;29.80;;;28.40;;
63379;SDS011;53160;55.014;73.156;2022-09-25T08:23:01;35.80;;;30.60;;
63379;SDS011;53160;55.014;73.156;2022-09-25T08:25:32;46.20;;;37.00;;
63379;SDS011;53160;55.014;73.156;2022-09-25T08:27:58;38.20;;;33.00;;
63379;SDS011;53160;55.014;73.156;2022-09-25T08:30:25;37.20;;;32.20;;
63379;SDS011;53160;55.014;73.156;2022-09-25T08:32:51;36.00;;;33.20;;
63379;SDS011;53160;55.014;73.156;2022-09-25T08:35:17;44.80;;;36.60;;
63379;SDS011;53160;55.014;73.156;2022-09-25T08:37:43;29.60;;;27.60;;
63379;SDS011;53160;55.014;73.156;2022-09-25T08:40:17;22.40;;;22.40;;
63379;SDS011;53160;55.014;73.156;2022-09-25T08:42:45;27.40;;;26.00;;
63379;SDS011;53160;55.014;73.156;2022-09-25T08:45:30;34.20;;;31.60;;
63379;SDS011;53160;55.014;73.156;2022-09-25T08:51:15;33.40;;;30.40;;
63379;SDS011;53160;55.014;73.156;2022-09-25T08:53:47;37.80;;;32.80;;
63379;SDS011;53160;55.014;73.156;2022-09-25T08:56:13;24.50;;;23.00;;
63379;SDS011;53160;55.014;73.156;2022-09-25T09:01:14;24.20;;;22.00;;
63379;SDS011;53160;55.014;73.156;2022-09-25T09:03:51;22.25;;;19.75;;
63379;SDS011;53160;55.014;73.156;2022-09-25T09:06:28;14.75;;;14.00;;
63379;SDS011;53160;55.014;73.156;2022-09-25T09:08:57;19.50;;;18.75;;
63379;SDS011;53160;55.014;73.156;2022-09-25T09:11:37;20.50;;;19.25;;
63379;SDS011;53160;55.014;73.156;2022-09-25T09:14:15;22.25;;;20.50;;
63379;SDS011;53160;55.014;73.156;2022-09-25T09:16:50;16.75;;;16.00;;
63379;SDS011;53160;55.014;73.156;2022-09-25T09:19:25;22.75;;;22.50;;
63379;SDS011;53160;55.014;73.156;2022-09-25T09:21:59;22.00;;;19.25;;
63379;SDS011;53160;55.014;73.156;2022-09-25T09:24:32;19.50;;;19.00;;
63379;SDS011;53160;55.014;73.156;2022-09-25T09:27:18;26.25;;;24.25;;
63379;SDS011;53160;55.014;73.156;2022-09-25T09:29:51;20.50;;;20.25;;
63379;SDS011;53160;55.014;73.156;2022-09-25T09:35:23;30.25;;;25.50;;
63379;SDS011;53160;55.014;73.156;2022-09-25T09:40:34;19.40;;;19.00;;
63379;SDS011;53160;55.014;73.156;2022-09-25T09:45:49;27.50;;;23.25;;
63379;SDS011;53160;55.014;73.156;2022-09-25T09:48:24;22.50;;;20.25;;
63379;SDS011;53160;55.014;73.156;2022-09-25T09:50:55;18.75;;;18.25;;
63379;SDS011;53160;55.014;73.156;2022-09-25T09:53:40;14.25;;;14.25;;
63379;SDS011;53160;55.014;73.156;2022-09-25T09:56:13;23.50;;;22.25;;
63379;SDS011;53160;55.014;73.156;2022-09-25T09:58:55;12.25;;;11.50;;
63379;SDS011;53160;55.014;73.156;2022-09-25T10:01:23;23.25;;;19.50;;
63379;SDS011;53160;55.014;73.156;2022-09-25T10:03:52;17.25;;;16.25;;
63379;SDS011;53160;55.014;73.156;2022-09-25T10:06:23;22.75;;;19.50;;
63379;SDS011;53160;55.014;73.156;2022-09-25T10:08:52;33.60;;;28.60;;
63379;SDS011;53160;55.014;73.156;2022-09-25T10:11:24;27.75;;;25.75;;
63379;SDS011;53160;55.014;73.156;2022-09-25T10:13:50;20.25;;;20.00;;
63379;SDS011;53160;55.014;73.156;2022-09-25T10:16:19;17.00;;;16.75;;
63379;SDS011;53160;55.014;73.156;2022-09-25T10:21:30;22.25;;;20.50;;
63379;SDS011;53160;55.014;73.156;2022-09-25T10:23:57;20.25;;;19.00;;
63379;SDS011;53160;55.014;73.156;2022-09-25T10:26:38;24.75;;;20.25;;
63379;SDS011;53160;55.014;73.156;2022-09-25T10:29:24;19.00;;;17.00;;
63379;SDS011;53160;55.014;73.156;2022-09-25T10:32:03;20.75;;;19.50;;
63379;SDS011;53160;55.014;73.156;2022-09-25T10:34:30;15.50;;;14.00;;
63379;SDS011;53160;55.014;73.156;2022-09-25T10:36:57;23.75;;;22.00;;
63379;SDS011;53160;55.014;73.156;2022-09-25T10:39:25;23.00;;;22.00;;
63379;SDS011;53160;55.014;73.156;2022-09-25T10:41:53;33.75;;;29.00;;
63379;SDS011;53160;55.014;73.156;2022-09-25T10:44:30;21.00;;;18.50;;
63379;SDS011;53160;55.014;73.156;2022-09-25T10:47:25;28.20;;;25.80;;
63379;SDS011;53160;55.014;73.156;2022-09-25T10:55:24;33.20;;;30.40;;
63379;SDS011;53160;55.014;73.156;2022-09-25T10:58:16;25.50;;;23.75;;
63379;SDS011;53160;55.014;73.156;2022-09-25T11:00:51;43.40;;;35.20;;
63379;SDS011;53160;55.014;73.156;2022-09-25T11:03:22;58.80;;;46.80;;
63379;SDS011;53160;55.014;73.156;2022-09-25T11:05:56;34.20;;;31.60;;
63379;SDS011;53160;55.014;73.156;2022-09-25T11:08:25;27.75;;;27.50;;
63379;SDS011;53160;55.014;73.156;2022-09-25T11:10:55;28.60;;;26.00;;
63379;SDS011;53160;55.014;73.156;2022-09-25T11:13:23;24.40;;;21.80;;
63379;SDS011;53160;55.014;73.156;2022-09-25T11:15:51;21.80;;;18.20;;
63379;SDS011;53160;55.014;73.156;2022-09-25T11:21:26;21.40;;;20.20;;
63379;SDS011;53160;55.014;73.156;2022-09-25T11:24:01;26.60;;;25.20;;
63379;SDS011;53160;55.014;73.156;2022-09-25T11:26:49;36.40;;;30.80;;
63379;SDS011;53160;55.014;73.156;2022-09-25T11:29:24;34.60;;;31.20;;
63379;SDS011;53160;55.014;73.156;2022-09-25T11:31:56;36.20;;;30.40;;
63379;SDS011;53160;55.014;73.156;2022-09-25T11:39:41;48.40;;;37.80;;
63379;SDS011;53160;55.014;73.156;2022-09-25T11:46:03;24.40;;;23.80;;
63379;SDS011;53160;55.014;73.156;2022-09-25T11:56:07;30.80;;;28.80;;
63379;SDS011;53160;55.014;73.156;2022-09-25T12:04:57;29.00;;;28.40;;
63379;SDS011;53160;55.014;73.156;2022-09-25T12:10:12;26.80;;;26.40;;
63379;SDS011;53160;55.014;73.156;2022-09-25T12:18:09;43.00;;;35.40;;
63379;SDS011;53160;55.014;73.156;2022-09-25T12:23:31;29.40;;;29.20;;
63379;SDS011;53160;55.014;73.156;2022-09-25T12:31:21;28.60;;;25.60;;
63379;SDS011;53160;55.014;73.156;2022-09-25T12:34:07;36.60;;;32.00;;
63379;SDS011;53160;55.014;73.156;2022-09-25T12:36:47;32.00;;;30.80;;
63379;SDS011;53160;55.014;73.156;2022-09-25T12:39:28;33.00;;;30.80;;
63379;SDS011;53160;55.014;73.156;2022-09-25T12:44:41;35.40;;;30.20;;
63379;SDS011;53160;55.014;73.156;2022-09-25T12:52:33;27.00;;;25.80;;
63379;SDS011;53160;55.014;73.156;2022-09-25T12:55:15;34.60;;;31.60;;
63379;SDS011;53160;55.014;73.156;2022-09-25T12:57:45;42.60;;;35.00;;
63379;SDS011;53160;55.014;73.156;2022-09-25T13:00:16;35.20;;;33.20;;
63379;SDS011;53160;55.014;73.156;2022-09-25T13:02:47;33.60;;;32.00;;
63379;SDS011;53160;55.014;73.156;2022-09-25T13:07:54;29.40;;;26.40;;
63379;SDS011;53160;55.014;73.156;2022-09-25T13:13:12;33.80;;;32.00;;
63379;SDS011;53160;55.014;73.156;2022-09-25T13:16:01;26.80;;;26.40;;
63379;SDS011;53160;55.014;73.156;2022-09-25T13:18:28;31.60;;;30.60;;
63379;SDS011;53160;55.014;73.156;2022-09-25T13:20:55;33.20;;;27.80;;
63379;SDS011;53160;55.014;73.156;2022-09-25T13:23:35;26.40;;;24.60;;
63379;SDS011;53160;55.014;73.156;2022-09-25T13:26:13;33.20;;;31.00;;
63379;SDS011;53160;55.014;73.156;2022-09-25T13:28:51;25.60;;;24.80;;
63379;SDS011;53160;55.014;73.156;2022-09-25T13:31:23;38.40;;;32.20;;
63379;SDS011;53160;55.014;73.156;2022-09-25T13:34:14;29.60;;;27.00;;
63379;SDS011;53160;55.014;73.156;2022-09-25T13:36:51;43.20;;;36.20;;
63379;SDS011;53160;55.014;73.156;2022-09-25T13:39:24;40.00;;;34.20;;
63379;SDS011;53160;55.014;73.156;2022-09-25T13:42:19;32.60;;;30.00;;
63379;SDS011;53160;55.014;73.156;2022-09-25T13:44:55;39.40;;;32.60;;
63379;SDS011;53160;55.014;73.156;2022-09-25T13:58:03;21.40;;;19.60;;
63379;SDS011;53160;55.014;73.156;2022-09-25T14:03:01;22.60;;;20.80;;
63379;SDS011;53160;55.014;73.156;2022-09-25T14:05:28;28.00;;;23.40;;
63379;SDS011;53160;55.014;73.156;2022-09-25T14:08:11;26.40;;;20.40;;
63379;SDS011;53160;55.014;73.156;2022-09-25T14:10:43;22.20;;;19.20;;
63379;SDS011;53160;55.014;73.156;2022-09-25T14:13:12;15.40;;;15.00;;
63379;SDS011;53160;55.014;73.156;2022-09-25T14:15:49;20.40;;;19.20;;
63379;SDS011;53160;55.014;73.156;2022-09-25T14:18:20;19.60;;;18.40;;
63379;SDS011;53160;55.014;73.156;2022-09-25T14:20:58;23.40;;;22.40;;
63379;SDS011;53160;55.014;73.156;2022-09-25T14:23:26;15.60;;;15.60;;
63379;SDS011;53160;55.014;73.156;2022-09-25T14:26:24;17.00;;;15.00;;
63379;SDS011;53160;55.014;73.156;2022-09-25T14:28:51;8.00;;;6.75;;
63379;SDS011;53160;55.014;73.156;2022-09-25T14:34:11;15.60;;;15.00;;
63379;SDS011;53160;55.014;73.156;2022-09-25T14:47:11;8.00;;;7.25;;
63379;SDS011;53160;55.014;73.156;2022-09-25T14:49:39;10.75;;;8.75;;
63379;SDS011;53160;55.014;73.156;2022-09-25T14:52:08;11.25;;;10.50;;
63379;SDS011;53160;55.014;73.156;2022-09-25T14:54:36;10.00;;;9.25;;
63379;SDS011;53160;55.014;73.156;2022-09-25T14:57:06;10.75;;;9.75;;
63379;SDS011;53160;55.014;73.156;2022-09-25T14:59:38;8.50;;;7.75;;
63379;SDS011;53160;55.014;73.156;2022-09-25T15:05:49;10.00;;;10.00;;
63379;SDS011;53160;55.014;73.156;2022-09-25T15:07:57;9.40;;;9.40;;
63379;SDS011;53160;55.014;73.156;2022-09-25T15:10:25;12.00;;;10.50;;
63379;SDS011;53160;55.014;73.156;2022-09-25T15:12:53;7.00;;;6.25;;
63379;SDS011;53160;55.014;73.156;2022-09-25T15:15:23;8.50;;;8.00;;
63379;SDS011;53160;55.014;73.156;2022-09-25T15:17:51;7.75;;;7.75;;
63379;SDS011;53160;55.014;73.156;2022-09-25T15:20:23;7.50;;;6.50;;
63379;SDS011;53160;55.014;73.156;2022-09-25T15:22:56;7.00;;;7.00;;
63379;SDS011;53160;55.014;73.156;2022-09-25T15:25:25;6.50;;;6.50;;
63379;SDS011;53160;55.014;73.156;2022-09-25T15:27:52;9.25;;;9.00;;
63379;SDS011;53160;55.014;73.156;2022-09-25T15:30:18;7.50;;;6.25;;
63379;SDS011;53160;55.014;73.156;2022-09-25T15:32:46;5.25;;;5.00;;
63379;SDS011;53160;55.014;73.156;2022-09-25T15:37:40;5.50;;;5.00;;
63379;SDS011;53160;55.014;73.156;2022-09-25T15:40:12;6.00;;;6.00;;
63379;SDS011;53160;55.014;73.156;2022-09-25T15:42:42;8.25;;;8.00;;
63379;SDS011;53160;55.014;73.156;2022-09-25T15:45:26;6.50;;;5.50;;
63379;SDS011;53160;55.014;73.156;2022-09-25T15:48:15;5.75;;;5.50;;
63379;SDS011;53160;55.014;73.156;2022-09-25T15:50:47;9.50;;;5.00;;
63379;SDS011;53160;55.014;73.156;2022-09-25T15:53:29;11.80;;;11.60;;
63379;SDS011;53160;55.014;73.156;2022-09-25T15:58:45;7.00;;;7.00;;
63379;SDS011;53160;55.014;73.156;2022-09-25T16:01:13;3.25;;;3.25;;
63379;SDS011;53160;55.014;73.156;2022-09-25T16:03:58;5.00;;;5.00;;
63379;SDS011;53160;55.014;73.156;2022-09-25T16:06:44;6.00;;;6.00;;
63379;SDS011;53160;55.014;73.156;2022-09-25T16:14:42;5.75;;;5.75;;
63379;SDS011;53160;55.014;73.156;2022-09-25T16:20:03;6.00;;;6.00;;
63379;SDS011;53160;55.014;73.156;2022-09-25T16:22:34;9.25;;;7.50;;
63379;SDS011;53160;55.014;73.156;2022-09-25T16:25:18;12.25;;;11.75;;
63379;SDS011;53160;55.014;73.156;2022-09-25T16:28:05;16.25;;;15.50;;
63379;SDS011;53160;55.014;73.156;2022-09-25T16:30:37;13.75;;;12.50;;
63379;SDS011;53160;55.014;73.156;2022-09-25T16:33:24;10.50;;;10.00;;
63379;SDS011;53160;55.014;73.156;2022-09-25T16:36:07;7.25;;;6.50;;
63379;SDS011;53160;55.014;73.156;2022-09-25T16:38:41;4.00;;;3.50;;
63379;SDS011;53160;55.014;73.156;2022-09-25T16:43:36;5.75;;;5.75;;
63379;SDS011;53160;55.014;73.156;2022-09-25T16:46:17;8.75;;;7.00;;
63379;SDS011;53160;55.014;73.156;2022-09-25T16:48:45;7.00;;;7.00;;
63379;SDS011;53160;55.014;73.156;2022-09-25T16:51:22;7.00;;;7.00;;
63379;SDS011;53160;55.014;73.156;2022-09-25T16:54:01;7.25;;;7.25;;
63379;SDS011;53160;55.014;73.156;2022-09-25T16:56:29;6.75;;;6.00;;
63379;SDS011;53160;55.014;73.156;2022-09-25T16:58:55;10.50;;;7.00;;
63379;SDS011;53160;55.014;73.156;2022-09-25T17:01:27;7.00;;;7.00;;
63379;SDS011;53160;55.014;73.156;2022-09-25T17:03:54;7.00;;;7.00;;
63379;SDS011;53160;55.014;73.156;2022-09-25T17:06:25;8.25;;;7.00;;
63379;SDS011;53160;55.014;73.156;2022-09-25T17:08:51;6.50;;;6.50;;
63379;SDS011;53160;55.014;73.156;2022-09-25T17:11:27;10.50;;;9.50;;